Live from Altenrhein
LIVE
LSZR 282350Z AUTO VRB02KT 5000 RA OVC030 15/15 Q1000

People´s C-Office:

T: +41 (0)71 858 51 65

E: c-office@peoples.ch

Customs Aerodrome LSZR

Declaration of Customs & Goods

The People’s Business Airport St. Gallen-Altenrhein is a customs clearing airport. Therefore, international arrivals and direct departures to an international destination are allowed. For more information on entry of persons, the import and export of goods, or the completion of customs formalities, please contact the Swiss Customs Administration (EZV) directly.

 

Swiss Customs Administration (EZV)